Station Historical Data
Daily Summary for January 9, 2017 Units:  Both    English   Metric
« Previous Day
Next Day »
Daily Weekly Monthly Yearly Custom
  High: Low: Average:
Temperature: 43.0 °F /  6.1 °C 23.9 °F /  -4.5 °C 31.7 °F /  -0.2 °C
Dew Point: 18.8 °F /  -7.3 °C 8.4 °F /  -13.1 °C 13.7 °F /  -10.2 °C
Humidity: 68% 25% 50%
Wind Speed: 10.4mph /  16.7km/h - 10.4mph /  16.7km/h
Wind Gust: 10.4mph /  16.7km/h - -
Wind- - South
Pressure: 30.78 in /  1042.2 hPa 30.60 in /  1036.1 hPa -
Precipitation: 0.09 in /  2.29 mm    
Historical Graphs
 
 
Tabular Data for January 9, 2017
Time Temperature Dew Point Pressure Wind Wind Speed Wind Gust Humidity Rainfall Rate (Hourly) Conditions
00:04 24.4 °F /  -4.2 °C 12.5 °F /  -10.8 °C 30.74in /  1040.9hPa NNE 10.4mph /  16.7km/h   60% 0.00in /  0mm
00:09 24.4 °F /  -4.2 °C 12.1 °F /  -11.1 °C 30.74in /  1040.9hPa NNE 10.4mph /  16.7km/h   59% 0.00in /  0mm
00:15 24.4 °F /  -4.2 °C 12.9 °F /  -10.6 °C 30.74in /  1040.9hPa NNE 10.4mph /  16.7km/h   61% 0.00in /  0mm
00:20 24.4 °F /  -4.2 °C 12.5 °F /  -10.8 °C 30.74in /  1040.9hPa NNE 10.4mph /  16.7km/h   60% 0.00in /  0mm
00:25 24.4 °F /  -4.2 °C 12.9 °F /  -10.6 °C 30.73in /  1040.5hPa NNE 10.4mph /  16.7km/h   61% 0.00in /  0mm
00:30 24.4 °F /  -4.2 °C 12.9 °F /  -10.6 °C 30.73in /  1040.5hPa NNE 10.4mph /  16.7km/h   61% 0.00in /  0mm
00:35 24.3 °F /  -4.3 °C 13.1 °F /  -10.5 °C 30.73in /  1040.5hPa NNE 10.4mph /  16.7km/h   62% 0.00in /  0mm
00:40 24.3 °F /  -4.3 °C 13.1 °F /  -10.5 °C 30.74in /  1040.9hPa NNE 10.4mph /  16.7km/h   62% 0.00in /  0mm
00:45 24.3 °F /  -4.3 °C 12.8 °F /  -10.7 °C 30.74in /  1040.9hPa NNE 10.4mph /  16.7km/h   61% 0.00in /  0mm
00:50 24.3 °F /  -4.3 °C 13.1 °F /  -10.5 °C 30.74in /  1040.9hPa NNE 10.4mph /  16.7km/h   62% 0.00in /  0mm
00:55 24.3 °F /  -4.3 °C 13.1 °F /  -10.5 °C 30.74in /  1040.9hPa NNE 10.4mph /  16.7km/h   62% 0.00in /  0mm
01:00 24.3 °F /  -4.3 °C 13.5 °F /  -10.3 °C 30.75in /  1041.2hPa NNE 10.4mph /  16.7km/h   63% 0.00in /  0mm
01:05 24.3 °F /  -4.3 °C 13.1 °F /  -10.5 °C 30.74in /  1040.9hPa NNE 10.4mph /  16.7km/h   62% 0.00in /  0mm
01:10 24.3 °F /  -4.3 °C 13.5 °F /  -10.3 °C 30.74in /  1040.9hPa NNE 10.4mph /  16.7km/h   63% 0.00in /  0mm
01:16 24.3 °F /  -4.3 °C 13.9 °F /  -10.1 °C 30.74in /  1040.9hPa NNE 10.4mph /  16.7km/h   64% 0.00in /  0mm
01:21 24.3 °F /  -4.3 °C 13.9 °F /  -10.1 °C 30.74in /  1040.9hPa NNE 10.4mph /  16.7km/h   64% 0.00in /  0mm
01:26 24.4 °F /  -4.2 °C 14.0 °F /  -10 °C 30.73in /  1040.5hPa NNE 10.4mph /  16.7km/h   64% 0.00in /  0mm
01:31 24.4 °F /  -4.2 °C 14.3 °F /  -9.8 °C 30.73in /  1040.5hPa NNE 10.4mph /  16.7km/h   65% 0.00in /  0mm
01:36 24.5 °F /  -4.2 °C 14.1 °F /  -9.9 °C 30.73in /  1040.5hPa NNE 10.4mph /  16.7km/h   64% 0.00in /  0mm
01:41 24.4 °F /  -4.2 °C 14.3 °F /  -9.8 °C 30.73in /  1040.5hPa NNE 10.4mph /  16.7km/h   65% 0.00in /  0mm
01:46 24.4 °F /  -4.2 °C 14.0 °F /  -10 °C 30.73in /  1040.5hPa NNE 10.4mph /  16.7km/h   64% 0.00in /  0mm
01:51 24.4 °F /  -4.2 °C 14.3 °F /  -9.8 °C 30.74in /  1040.9hPa NNE 10.4mph /  16.7km/h   65% 0.00in /  0mm
01:56 24.4 °F /  -4.2 °C 14.7 °F /  -9.6 °C 30.73in /  1040.5hPa NNE 10.4mph /  16.7km/h   66% 0.00in /  0mm
02:01 24.4 °F /  -4.2 °C 15.0 °F /  -9.4 °C 30.73in /  1040.5hPa NNE 10.4mph /  16.7km/h   67% 0.00in /  0mm
02:06 24.4 °F /  -4.2 °C 14.7 °F /  -9.6 °C 30.73in /  1040.5hPa NNE 10.4mph /  16.7km/h   66% 0.00in /  0mm
02:12 24.4 °F /  -4.2 °C 15.0 °F /  -9.4 °C 30.73in /  1040.5hPa NNE 10.4mph /  16.7km/h   67% 0.00in /  0mm
02:17 24.3 °F /  -4.3 °C 14.9 °F /  -9.5 °C 30.73in /  1040.5hPa NNE 10.4mph /  16.7km/h   67% 0.00in /  0mm
02:22 24.3 °F /  -4.3 °C 14.9 °F /  -9.5 °C 30.74in /  1040.9hPa NNE 10.4mph /  16.7km/h   67% 0.00in /  0mm
02:27 24.3 °F /  -4.3 °C 15.3 °F /  -9.3 °C 30.73in /  1040.5hPa NNE 10.4mph /  16.7km/h   68% 0.00in /  0mm
02:32 24.2 °F /  -4.3 °C 15.2 °F /  -9.3 °C 30.73in /  1040.5hPa NNE 10.4mph /  16.7km/h   68% 0.00in /  0mm
02:37 24.2 °F /  -4.3 °C 15.2 °F /  -9.3 °C 30.73in /  1040.5hPa NNE 10.4mph /  16.7km/h   68% 0.00in /  0mm
02:42 24.2 °F /  -4.3 °C 15.2 °F /  -9.3 °C 30.73in /  1040.5hPa NNE 10.4mph /  16.7km/h   68% 0.00in /  0mm
02:47 24.2 °F /  -4.3 °C 15.2 °F /  -9.3 °C 30.73in /  1040.5hPa North 10.4mph /  16.7km/h   68% 0.00in /  0mm
02:52 24.2 °F /  -4.3 °C 15.2 °F /  -9.3 °C 30.72in /  1040.2hPa North 10.4mph /  16.7km/h   68% 0.00in /  0mm
02:58 23.9 °F /  -4.5 °C 14.9 °F /  -9.5 °C 30.72in /  1040.2hPa NNW 10.4mph /  16.7km/h   68% 0.00in /  0mm
03:03 23.9 °F /  -4.5 °C 14.9 °F /  -9.5 °C 30.73in /  1040.5hPa NNW 10.4mph /  16.7km/h   68% 0.00in /  0mm
03:08 23.9 °F /  -4.5 °C 14.9 °F /  -9.5 °C 30.72in /  1040.2hPa NNE 10.4mph /  16.7km/h   68% 0.00in /  0mm
03:13 23.9 °F /  -4.5 °C 14.9 °F /  -9.5 °C 30.72in /  1040.2hPa North 10.4mph /  16.7km/h   68% 0.00in /  0mm
03:18 23.9 °F /  -4.5 °C 14.9 °F /  -9.5 °C 30.72in /  1040.2hPa North 10.4mph /  16.7km/h   68% 0.00in /  0mm
03:23 23.9 °F /  -4.5 °C 14.9 °F /  -9.5 °C 30.72in /  1040.2hPa North 10.4mph /  16.7km/h   68% 0.00in /  0mm
03:28 23.9 °F /  -4.5 °C 14.9 °F /  -9.5 °C 30.73in /  1040.5hPa North 10.4mph /  16.7km/h   68% 0.00in /  0mm
03:33 23.9 °F /  -4.5 °C 14.9 °F /  -9.5 °C 30.73in /  1040.5hPa North 10.4mph /  16.7km/h   68% 0.00in /  0mm
03:38 23.9 °F /  -4.5 °C 14.9 °F /  -9.5 °C 30.73in /  1040.5hPa North 10.4mph /  16.7km/h   68% 0.00in /  0mm
03:43 23.9 °F /  -4.5 °C 14.9 °F /  -9.5 °C 30.73in /  1040.5hPa North 10.4mph /  16.7km/h   68% 0.00in /  0mm
03:48 23.9 °F /  -4.5 °C 14.9 °F /  -9.5 °C 30.73in /  1040.5hPa North 10.4mph /  16.7km/h   68% 0.00in /  0mm
03:53 23.9 °F /  -4.5 °C 14.9 °F /  -9.5 °C 30.73in /  1040.5hPa North 10.4mph /  16.7km/h   68% 0.00in /  0mm
03:58 23.9 °F /  -4.5 °C 14.9 °F /  -9.5 °C 30.72in /  1040.2hPa North 10.4mph /  16.7km/h   68% 0.00in /  0mm
04:03 23.9 °F /  -4.5 °C 14.9 °F /  -9.5 °C 30.73in /  1040.5hPa North 10.4mph /  16.7km/h   68% 0.00in /  0mm
04:08 23.9 °F /  -4.5 °C 14.9 °F /  -9.5 °C 30.73in /  1040.5hPa North 10.4mph /  16.7km/h   68% 0.00in /  0mm
04:13 23.9 °F /  -4.5 °C 14.9 °F /  -9.5 °C 30.73in /  1040.5hPa North 10.4mph /  16.7km/h   68% 0.00in /  0mm
04:19 23.9 °F /  -4.5 °C 14.9 °F /  -9.5 °C 30.73in /  1040.5hPa North 10.4mph /  16.7km/h   68% 0.00in /  0mm
04:24 23.9 °F /  -4.5 °C 14.9 °F /  -9.5 °C 30.74in /  1040.9hPa North 10.4mph /  16.7km/h   68% 0.00in /  0mm
04:29 23.9 °F /  -4.5 °C 14.9 °F /  -9.5 °C 30.74in /  1040.9hPa North 10.4mph /  16.7km/h   68% 0.00in /  0mm
04:34 23.9 °F /  -4.5 °C 14.9 °F /  -9.5 °C 30.74in /  1040.9hPa North 10.4mph /  16.7km/h   68% 0.00in /  0mm
04:39 23.9 °F /  -4.5 °C 14.9 °F /  -9.5 °C 30.74in /  1040.9hPa North 10.4mph /  16.7km/h   68% 0.00in /  0mm
04:44 23.9 °F /  -4.5 °C 14.9 °F /  -9.5 °C 30.74in /  1040.9hPa North 10.4mph /  16.7km/h   68% 0.00in /  0mm
04:49 23.9 °F /  -4.5 °C 14.9 °F /  -9.5 °C 30.75in /  1041.2hPa North 10.4mph /  16.7km/h   68% 0.00in /  0mm
04:54 23.9 °F /  -4.5 °C 14.9 °F /  -9.5 °C 30.75in /  1041.2hPa North 10.4mph /  16.7km/h   68% 0.00in /  0mm
04:59 23.9 °F /  -4.5 °C 14.9 °F /  -9.5 °C 30.75in /  1041.2hPa North 10.4mph /  16.7km/h   68% 0.00in /  0mm
05:04 23.9 °F /  -4.5 °C 14.9 °F /  -9.5 °C 30.75in /  1041.2hPa North 10.4mph /  16.7km/h   68% 0.00in /  0mm
05:09 23.9 °F /  -4.5 °C 14.9 °F /  -9.5 °C 30.75in /  1041.2hPa North 10.4mph /  16.7km/h   68% 0.00in /  0mm
05:15 23.9 °F /  -4.5 °C 14.9 °F /  -9.5 °C 30.75in /  1041.2hPa North 10.4mph /  16.7km/h   68% 0.00in /  0mm
05:20 23.9 °F /  -4.5 °C 14.9 °F /  -9.5 °C 30.75in /  1041.2hPa North 10.4mph /  16.7km/h   68% 0.00in /  0mm
05:25 23.9 °F /  -4.5 °C 14.9 °F /  -9.5 °C 30.75in /  1041.2hPa North 10.4mph /  16.7km/h   68% 0.00in /  0mm
05:30 23.9 °F /  -4.5 °C 14.9 °F /  -9.5 °C 30.75in /  1041.2hPa North 10.4mph /  16.7km/h   68% 0.00in /  0mm
05:35 23.9 °F /  -4.5 °C 14.9 °F /  -9.5 °C 30.75in /  1041.2hPa North 10.4mph /  16.7km/h   68% 0.00in /  0mm
05:40 23.9 °F /  -4.5 °C 14.9 °F /  -9.5 °C 30.75in /  1041.2hPa North 10.4mph /  16.7km/h   68% 0.00in /  0mm
05:45 23.9 °F /  -4.5 °C 14.9 °F /  -9.5 °C 30.75in /  1041.2hPa North 10.4mph /  16.7km/h   68% 0.00in /  0mm
05:50 23.9 °F /  -4.5 °C 14.9 °F /  -9.5 °C 30.75in /  1041.2hPa North 10.4mph /  16.7km/h   68% 0.00in /  0mm
05:55 23.9 °F /  -4.5 °C 14.9 °F /  -9.5 °C 30.75in /  1041.2hPa North 10.4mph /  16.7km/h   68% 0.00in /  0mm
06:00 23.9 °F /  -4.5 °C 14.9 °F /  -9.5 °C 30.76in /  1041.5hPa North 10.4mph /  16.7km/h   68% 0.00in /  0mm
06:05 23.9 °F /  -4.5 °C 14.9 °F /  -9.5 °C 30.75in /  1041.2hPa North 10.4mph /  16.7km/h   68% 0.00in /  0mm
06:10 23.9 °F /  -4.5 °C 14.9 °F /  -9.5 °C 30.75in /  1041.2hPa North 10.4mph /  16.7km/h   68% 0.00in /  0mm
06:15 23.9 °F /  -4.5 °C 14.9 °F /  -9.5 °C 30.75in /  1041.2hPa North 10.4mph /  16.7km/h   68% 0.00in /  0mm
06:20 23.9 °F /  -4.5 °C 14.9 °F /  -9.5 °C 30.76in /  1041.5hPa North 10.4mph /  16.7km/h   68% 0.00in /  0mm
06:25 23.9 °F /  -4.5 °C 14.9 °F /  -9.5 °C 30.76in /  1041.5hPa North 10.4mph /  16.7km/h   68% 0.00in /  0mm
06:30 23.9 °F /  -4.5 °C 14.9 °F /  -9.5 °C 30.76in /  1041.5hPa North 10.4mph /  16.7km/h   68% 0.00in /  0mm
06:36 23.9 °F /  -4.5 °C 14.9 °F /  -9.5 °C 30.76in /  1041.5hPa North 10.4mph /  16.7km/h   68% 0.00in /  0mm
06:41 23.9 °F /  -4.5 °C 14.9 °F /  -9.5 °C 30.76in /  1041.5hPa North 10.4mph /  16.7km/h   68% 0.00in /  0mm
06:46 23.9 °F /  -4.5 °C 14.9 °F /  -9.5 °C 30.76in /  1041.5hPa North 10.4mph /  16.7km/h   68% 0.00in /  0mm
06:51 23.9 °F /  -4.5 °C 14.9 °F /  -9.5 °C 30.76in /  1041.5hPa North 10.4mph /  16.7km/h   68% 0.00in /  0mm
06:56 23.9 °F /  -4.5 °C 14.9 °F /  -9.5 °C 30.76in /  1041.5hPa North 10.4mph /  16.7km/h   68% 0.00in /  0mm
07:01 23.9 °F /  -4.5 °C 14.9 °F /  -9.5 °C 30.77in /  1041.9hPa North 10.4mph /  16.7km/h   68% 0.00in /  0mm CLR
07:06 23.9 °F /  -4.5 °C 14.9 °F /  -9.5 °C 30.77in /  1041.9hPa North 10.4mph /  16.7km/h   68% 0.00in /  0mm CLR
07:11 23.9 °F /  -4.5 °C 14.9 °F /  -9.5 °C 30.77in /  1041.9hPa North 10.4mph /  16.7km/h   68% 0.00in /  0mm CLR
07:16 23.9 °F /  -4.5 °C 14.9 °F /  -9.5 °C 30.77in /  1041.9hPa North 10.4mph /  16.7km/h   68% 0.00in /  0mm CLR
07:21 23.9 °F /  -4.5 °C 14.9 °F /  -9.5 °C 30.77in /  1041.9hPa North 10.4mph /  16.7km/h   68% 0.00in /  0mm CLR
07:26 23.9 °F /  -4.5 °C 14.9 °F /  -9.5 °C 30.77in /  1041.9hPa North 10.4mph /  16.7km/h   68% 0.00in /  0mm CLR
07:32 23.9 °F /  -4.5 °C 14.9 °F /  -9.5 °C 30.77in /  1041.9hPa North 10.4mph /  16.7km/h   68% 0.00in /  0mm CLR
07:37 23.9 °F /  -4.5 °C 14.9 °F /  -9.5 °C 30.77in /  1041.9hPa North 10.4mph /  16.7km/h   68% 0.00in /  0mm CLR
07:42 23.9 °F /  -4.5 °C 14.9 °F /  -9.5 °C 30.77in /  1041.9hPa North 10.4mph /  16.7km/h   68% 0.00in /  0mm CLR
07:47 23.9 °F /  -4.5 °C 14.9 °F /  -9.5 °C 30.77in /  1041.9hPa North 10.4mph /  16.7km/h   68% 0.00in /  0mm CLR
07:52 23.9 °F /  -4.5 °C 14.9 °F /  -9.5 °C 30.77in /  1041.9hPa North 10.4mph /  16.7km/h   68% 0.00in /  0mm CLR
07:57 23.9 °F /  -4.5 °C 14.9 °F /  -9.5 °C 30.77in /  1041.9hPa North 10.4mph /  16.7km/h   68% 0.00in /  0mm CLR
08:02 23.9 °F /  -4.5 °C 14.9 °F /  -9.5 °C 30.77in /  1041.9hPa North 10.4mph /  16.7km/h   68% 0.00in /  0mm CLR
08:07 23.9 °F /  -4.5 °C 14.9 °F /  -9.5 °C 30.78in /  1042.2hPa North 10.4mph /  16.7km/h   68% 0.00in /  0mm CLR
08:12 23.9 °F /  -4.5 °C 14.9 °F /  -9.5 °C 30.77in /  1041.9hPa North 10.4mph /  16.7km/h   68% 0.00in /  0mm CLR
08:17 23.9 °F /  -4.5 °C 14.9 °F /  -9.5 °C 30.77in /  1041.9hPa North 10.4mph /  16.7km/h   68% 0.00in /  0mm CLR
08:22 23.9 °F /  -4.5 °C 14.9 °F /  -9.5 °C 30.77in /  1041.9hPa North 10.4mph /  16.7km/h   68% 0.00in /  0mm CLR
08:27 23.9 °F /  -4.5 °C 14.9 °F /  -9.5 °C 30.78in /  1042.2hPa North 10.4mph /  16.7km/h   68% 0.00in /  0mm CLR
08:32 23.9 °F /  -4.5 °C 14.9 °F /  -9.5 °C 30.77in /  1041.9hPa North 10.4mph /  16.7km/h   68% 0.00in /  0mm CLR
08:37 23.9 °F /  -4.5 °C 14.9 °F /  -9.5 °C 30.78in /  1042.2hPa North 10.4mph /  16.7km/h   68% 0.00in /  0mm CLR
08:42 23.9 °F /  -4.5 °C 14.9 °F /  -9.5 °C 30.77in /  1041.9hPa North 10.4mph /  16.7km/h   68% 0.00in /  0mm CLR
08:47 23.9 °F /  -4.5 °C 14.9 °F /  -9.5 °C 30.77in /  1041.9hPa North 10.4mph /  16.7km/h   68% 0.00in /  0mm CLR
08:53 23.9 °F /  -4.5 °C 14.9 °F /  -9.5 °C 30.77in /  1041.9hPa North 10.4mph /  16.7km/h   68% 0.00in /  0mm CLR
08:58 23.9 °F /  -4.5 °C 14.9 °F /  -9.5 °C 30.77in /  1041.9hPa North 10.4mph /  16.7km/h   68% 0.00in /  0mm CLR
09:03 23.9 °F /  -4.5 °C 14.9 °F /  -9.5 °C 30.77in /  1041.9hPa North 10.4mph /  16.7km/h   68% 0.00in /  0mm OVC
09:08 23.9 °F /  -4.5 °C 14.9 °F /  -9.5 °C 30.78in /  1042.2hPa North 10.4mph /  16.7km/h   68% 0.00in /  0mm OVC
09:13 23.9 °F /  -4.5 °C 14.9 °F /  -9.5 °C 30.77in /  1041.9hPa North 10.4mph /  16.7km/h   68% 0.00in /  0mm OVC
09:18 23.9 °F /  -4.5 °C 14.9 °F /  -9.5 °C 30.77in /  1041.9hPa North 10.4mph /  16.7km/h   68% 0.00in /  0mm OVC
09:23 23.9 °F /  -4.5 °C 14.9 °F /  -9.5 °C 30.77in /  1041.9hPa North 10.4mph /  16.7km/h   68% 0.00in /  0mm OVC
09:28 29.0 °F /  -1.7 °C 14.4 °F /  -9.8 °C 30.78in /  1042.2hPa WNW 10.4mph /  16.7km/h   54% 0.00in /  0mm OVC
09:33 29.8 °F /  -1.2 °C 14.7 °F /  -9.6 °C 30.78in /  1042.2hPa NW 10.4mph /  16.7km/h 10.4mph /  16.7km/h 53% 0.00in /  0mm OVC
09:38 30.8 °F /  -0.7 °C 14.3 °F /  -9.8 °C 30.78in /  1042.2hPa NNW 10.4mph /  16.7km/h 10.4mph /  16.7km/h 50% 0.00in /  0mm OVC
09:43 30.9 °F /  -0.6 °C 14.0 °F /  -10 °C 30.78in /  1042.2hPa West 10.4mph /  16.7km/h 10.4mph /  16.7km/h 49% 0.00in /  0mm OVC
09:48 31.0 °F /  -0.6 °C 14.0 °F /  -10 °C 30.78in /  1042.2hPa WNW 10.4mph /  16.7km/h   49% 0.00in /  0mm OVC
09:54 31.5 °F /  -0.3 °C 13.6 °F /  -10.2 °C 30.78in /  1042.2hPa SSW 10.4mph /  16.7km/h 10.4mph /  16.7km/h 47% 0.00in /  0mm OVC
09:59 31.6 °F /  -0.2 °C 13.2 °F /  -10.4 °C 30.78in /  1042.2hPa North 10.4mph /  16.7km/h 10.4mph /  16.7km/h 46% 0.00in /  0mm OVC
10:04 31.6 °F /  -0.2 °C 12.7 °F /  -10.7 °C 30.78in /  1042.2hPa NW 10.4mph /  16.7km/h 10.4mph /  16.7km/h 45% 0.00in /  0mm OVC
10:09 31.8 °F /  -0.1 °C 12.8 °F /  -10.7 °C 30.78in /  1042.2hPa West 10.4mph /  16.7km/h 10.4mph /  16.7km/h 45% 0.00in /  0mm OVC
10:14 31.8 °F /  -0.1 °C 13.3 °F /  -10.4 °C 30.78in /  1042.2hPa WNW 10.4mph /  16.7km/h 10.4mph /  16.7km/h 46% 0.00in /  0mm OVC
10:19 32.0 °F /  0 °C 13.5 °F /  -10.3 °C 30.78in /  1042.2hPa WNW 10.4mph /  16.7km/h 10.4mph /  16.7km/h 46% 0.00in /  0mm OVC
10:24 32.2 °F /  0.1 °C 12.2 °F /  -11 °C 30.78in /  1042.2hPa WNW 10.4mph /  16.7km/h 10.4mph /  16.7km/h 43% 0.00in /  0mm OVC
10:29 32.2 °F /  0.1 °C 13.2 °F /  -10.4 °C 30.78in /  1042.2hPa WNW 10.4mph /  16.7km/h 10.4mph /  16.7km/h 45% 0.00in /  0mm OVC
10:34 32.9 °F /  0.5 °C 13.3 °F /  -10.4 °C 30.78in /  1042.2hPa WNW 10.4mph /  16.7km/h 10.4mph /  16.7km/h 44% 0.00in /  0mm OVC
10:39 34.1 °F /  1.2 °C 14.4 °F /  -9.8 °C 30.78in /  1042.2hPa WSW 10.4mph /  16.7km/h 10.4mph /  16.7km/h 44% 0.00in /  0mm OVC
10:44 34.5 °F /  1.4 °C 13.2 °F /  -10.4 °C 30.78in /  1042.2hPa NW 10.4mph /  16.7km/h 10.4mph /  16.7km/h 41% 0.00in /  0mm OVC
10:49 35.0 °F /  1.7 °C 12.5 °F /  -10.8 °C 30.77in /  1041.9hPa WNW 10.4mph /  16.7km/h 10.4mph /  16.7km/h 39% 0.00in /  0mm OVC
10:54 35.3 °F /  1.8 °C 14.5 °F /  -9.7 °C 30.77in /  1041.9hPa WNW 10.4mph /  16.7km/h 10.4mph /  16.7km/h 42% 0.00in /  0mm OVC
10:59 35.5 °F /  1.9 °C 11.8 °F /  -11.2 °C 30.77in /  1041.9hPa WNW 10.4mph /  16.7km/h 10.4mph /  16.7km/h 37% 0.00in /  0mm OVC
11:04 35.7 °F /  2.1 °C 14.8 °F /  -9.6 °C 30.77in /  1041.9hPa NW 10.4mph /  16.7km/h   42% 0.00in /  0mm OVC
11:09 36.5 °F /  2.5 °C 13.3 °F /  -10.4 °C 30.77in /  1041.9hPa NW 10.4mph /  16.7km/h   38% 0.00in /  0mm OVC
11:14 36.9 °F /  2.7 °C 12.4 °F /  -10.9 °C 30.77in /  1041.9hPa WNW 10.4mph /  16.7km/h 10.4mph /  16.7km/h 36% 0.00in /  0mm OVC
11:19 37.2 °F /  2.9 °C 13.9 °F /  -10.1 °C 30.77in /  1041.9hPa WNW 10.4mph /  16.7km/h 10.4mph /  16.7km/h 38% 0.00in /  0mm OVC
11:25 37.7 °F /  3.2 °C 14.3 °F /  -9.8 °C 30.77in /  1041.9hPa NW 10.4mph /  16.7km/h 10.4mph /  16.7km/h 38% 0.00in /  0mm OVC
11:30 37.8 °F /  3.2 °C 13.8 °F /  -10.1 °C 30.77in /  1041.9hPa West 10.4mph /  16.7km/h 10.4mph /  16.7km/h 37% 0.00in /  0mm OVC
11:35 38.3 °F /  3.5 °C 12.3 °F /  -10.9 °C 30.76in /  1041.5hPa WNW 10.4mph /  16.7km/h 10.4mph /  16.7km/h 34% 0.00in /  0mm OVC
11:40 38.5 °F /  3.6 °C 13.8 °F /  -10.1 °C 30.76in /  1041.5hPa NW 10.4mph /  16.7km/h 10.4mph /  16.7km/h 36% 0.00in /  0mm OVC
11:45 39.0 °F /  3.9 °C 14.9 °F /  -9.5 °C 30.76in /  1041.5hPa WNW 10.4mph /  16.7km/h 10.4mph /  16.7km/h 37% 0.00in /  0mm OVC
11:50 39.0 °F /  3.9 °C 13.0 °F /  -10.6 °C 30.76in /  1041.5hPa WNW 10.4mph /  16.7km/h 10.4mph /  16.7km/h 34% 0.00in /  0mm OVC
11:55 39.2 °F /  4 °C 13.8 °F /  -10.1 °C 30.75in /  1041.2hPa NW 10.4mph /  16.7km/h 10.4mph /  16.7km/h 35% 0.00in /  0mm OVC
12:00 39.3 °F /  4.1 °C 13.2 °F /  -10.4 °C 30.75in /  1041.2hPa WNW 10.4mph /  16.7km/h 10.4mph /  16.7km/h 34% 0.00in /  0mm OVC
12:05 39.6 °F /  4.2 °C 14.8 °F /  -9.6 °C 30.75in /  1041.2hPa NW 10.4mph /  16.7km/h 10.4mph /  16.7km/h 36% 0.00in /  0mm OVC
12:10 39.9 °F /  4.4 °C 13.8 °F /  -10.1 °C 30.75in /  1041.2hPa WNW 10.4mph /  16.7km/h 10.4mph /  16.7km/h 34% 0.00in /  0mm OVC
12:15 39.8 °F /  4.3 °C 13.7 °F /  -10.2 °C 30.74in /  1040.9hPa West 10.4mph /  16.7km/h 10.4mph /  16.7km/h 34% 0.00in /  0mm OVC
12:21 39.6 °F /  4.2 °C 12.8 °F /  -10.7 °C 30.74in /  1040.9hPa WNW 10.4mph /  16.7km/h 10.4mph /  16.7km/h 33% 0.00in /  0mm OVC
12:26 39.6 °F /  4.2 °C 11.4 °F /  -11.4 °C 30.73in /  1040.5hPa North 10.4mph /  16.7km/h 10.4mph /  16.7km/h 31% 0.00in /  0mm OVC
12:31 39.9 °F /  4.4 °C 14.4 °F /  -9.8 °C 30.73in /  1040.5hPa NNW 10.4mph /  16.7km/h 10.4mph /  16.7km/h 35% 0.00in /  0mm OVC
12:36 40.9 °F /  4.9 °C 14.0 °F /  -10 °C 30.72in /  1040.2hPa WNW 10.4mph /  16.7km/h 10.4mph /  16.7km/h 33% 0.00in /  0mm OVC
12:41 41.1 °F /  5.1 °C 15.5 °F /  -9.2 °C 30.72in /  1040.2hPa West 10.4mph /  16.7km/h 10.4mph /  16.7km/h 35% 0.00in /  0mm OVC
12:46 41.6 °F /  5.3 °C 13.9 °F /  -10.1 °C 30.72in /  1040.2hPa West 10.4mph /  16.7km/h 10.4mph /  16.7km/h 32% 0.00in /  0mm OVC
12:51 41.6 °F /  5.3 °C 10.0 °F /  -12.2 °C 30.72in /  1040.2hPa NW 10.4mph /  16.7km/h 10.4mph /  16.7km/h 27% 0.00in /  0mm OVC
12:56 41.1 °F /  5.1 °C 10.4 °F /  -12 °C 30.71in /  1039.8hPa WNW 10.4mph /  16.7km/h 10.4mph /  16.7km/h 28% 0.00in /  0mm OVC
13:01 41.7 °F /  5.4 °C 11.7 °F /  -11.3 °C 30.70in /  1039.5hPa NW 10.4mph /  16.7km/h 10.4mph /  16.7km/h 29% 0.00in /  0mm OVC
13:06 42.2 °F /  5.7 °C 11.4 °F /  -11.4 °C 30.70in /  1039.5hPa NW 10.4mph /  16.7km/h 10.4mph /  16.7km/h 28% 0.00in /  0mm OVC
13:11 42.8 °F /  6 °C 13.5 °F /  -10.3 °C 30.70in /  1039.5hPa NW 10.4mph /  16.7km/h 10.4mph /  16.7km/h 30% 0.00in /  0mm OVC
13:16 43.0 °F /  6.1 °C 12.9 °F /  -10.6 °C 30.69in /  1039.2hPa WNW 10.4mph /  16.7km/h 10.4mph /  16.7km/h 29% 0.01in /  0.25mm OVC
13:21 43.0 °F /  6.1 °C 10.4 °F /  -12 °C 30.68in /  1038.8hPa NW 10.4mph /  16.7km/h 10.4mph /  16.7km/h 26% 0.03in /  0.76mm RA
13:26 42.4 °F /  5.8 °C 10.7 °F /  -11.8 °C 30.68in /  1038.8hPa West 10.4mph /  16.7km/h 10.4mph /  16.7km/h 27% 0.04in /  1.02mm RA
13:31 42.3 °F /  5.7 °C 10.6 °F /  -11.9 °C 30.68in /  1038.8hPa NNW 10.4mph /  16.7km/h 10.4mph /  16.7km/h 27% 0.04in /  1.02mm OVC
13:36 42.4 °F /  5.8 °C 11.5 °F /  -11.4 °C 30.67in /  1038.5hPa NNW 10.4mph /  16.7km/h   28% 0.05in /  1.27mm OVC
13:42 42.1 °F /  5.6 °C 12.1 °F /  -11.1 °C 30.67in /  1038.5hPa WNW 10.4mph /  16.7km/h 10.4mph /  16.7km/h 29% 0.05in /  1.27mm OVC
13:47 41.6 °F /  5.3 °C 10.0 °F /  -12.2 °C 30.67in /  1038.5hPa NW 10.4mph /  16.7km/h 10.4mph /  16.7km/h 27% 0.06in /  1.52mm RA
13:52 41.1 °F /  5.1 °C 12.0 °F /  -11.1 °C 30.66in /  1038.1hPa NW 10.4mph /  16.7km/h 10.4mph /  16.7km/h 30% 0.06in /  1.52mm OVC
13:57 41.1 °F /  5.1 °C 12.7 °F /  -10.7 °C 30.66in /  1038.1hPa West 10.4mph /  16.7km/h 10.4mph /  16.7km/h 31% 0.06in /  1.52mm OVC
14:02 41.1 °F /  5.1 °C 11.2 °F /  -11.6 °C 30.66in /  1038.1hPa North 10.4mph /  16.7km/h 10.4mph /  16.7km/h 29% 0.06in /  1.52mm OVC
14:07 40.9 °F /  4.9 °C 10.2 °F /  -12.1 °C 30.66in /  1038.1hPa WNW 10.4mph /  16.7km/h 10.4mph /  16.7km/h 28% 0.06in /  1.52mm OVC
14:12 40.9 °F /  4.9 °C 9.4 °F /  -12.6 °C 30.65in /  1037.8hPa NW 10.4mph /  16.7km/h 10.4mph /  16.7km/h 27% 0.05in /  1.27mm OVC
14:17 40.7 °F /  4.8 °C 10.1 °F /  -12.2 °C 30.65in /  1037.8hPa NW 10.4mph /  16.7km/h   28% 0.04in /  1.02mm OVC
14:22 40.9 °F /  4.9 °C 10.2 °F /  -12.1 °C 30.65in /  1037.8hPa West 10.4mph /  16.7km/h 10.4mph /  16.7km/h 28% 0.03in /  0.76mm OVC
14:27 40.8 °F /  4.9 °C 10.9 °F /  -11.7 °C 30.65in /  1037.8hPa NW 10.4mph /  16.7km/h 10.4mph /  16.7km/h 29% 0.03in /  0.76mm RA
14:32 40.9 °F /  4.9 °C 10.2 °F /  -12.1 °C 30.65in /  1037.8hPa NW 10.4mph /  16.7km/h 10.4mph /  16.7km/h 28% 0.03in /  0.76mm OVC
14:37 40.9 °F /  4.9 °C 10.2 °F /  -12.1 °C 30.65in /  1037.8hPa NNE 10.4mph /  16.7km/h 10.4mph /  16.7km/h 28% 0.02in /  0.51mm OVC
14:43 41.1 °F /  5.1 °C 10.4 °F /  -12 °C 30.65in /  1037.8hPa NW 10.4mph /  16.7km/h   28% 0.02in /  0.51mm OVC
14:48 41.4 °F /  5.2 °C 10.7 °F /  -11.8 °C 30.64in /  1037.5hPa NW 10.4mph /  16.7km/h 10.4mph /  16.7km/h 28% 0.01in /  0.25mm OVC
14:53 41.7 °F /  5.4 °C 10.1 °F /  -12.2 °C 30.65in /  1037.8hPa WNW 10.4mph /  16.7km/h 10.4mph /  16.7km/h 27% 0.01in /  0.25mm OVC
14:58 42.1 °F /  5.6 °C 11.3 °F /  -11.5 °C 30.64in /  1037.5hPa NW 10.4mph /  16.7km/h 10.4mph /  16.7km/h 28% 0.01in /  0.25mm OVC
15:03 42.3 °F /  5.7 °C 11.5 °F /  -11.4 °C 30.64in /  1037.5hPa NW 10.4mph /  16.7km/h   28% 0.01in /  0.25mm OVC
15:08 42.2 °F /  5.7 °C 12.9 °F /  -10.6 °C 30.64in /  1037.5hPa WNW 10.4mph /  16.7km/h 10.4mph /  16.7km/h 30% 0.01in /  0.25mm OVC
15:13 41.9 °F /  5.5 °C 8.6 °F /  -13 °C 30.64in /  1037.5hPa NW 10.4mph /  16.7km/h 10.4mph /  16.7km/h 25% 0.01in /  0.25mm OVC
15:18 41.9 °F /  5.5 °C 10.3 °F /  -12.1 °C 30.64in /  1037.5hPa WNW 10.4mph /  16.7km/h 10.4mph /  16.7km/h 27% 0.02in /  0.51mm RA
15:23 42.0 °F /  5.6 °C 13.5 °F /  -10.3 °C 30.64in /  1037.5hPa WNW 10.4mph /  16.7km/h   31% 0.02in /  0.51mm OVC
15:28 42.0 °F /  5.6 °C 12.0 °F /  -11.1 °C 30.63in /  1037.1hPa WNW 10.4mph /  16.7km/h 10.4mph /  16.7km/h 29% 0.01in /  0.25mm OVC
15:34 42.0 °F /  5.6 °C 11.2 °F /  -11.6 °C 30.64in /  1037.5hPa NW 10.4mph /  16.7km/h 10.4mph /  16.7km/h 28% 0.01in /  0.25mm OVC
15:39 42.0 °F /  5.6 °C 10.4 °F /  -12 °C 30.63in /  1037.1hPa NW 10.4mph /  16.7km/h   27% 0.01in /  0.25mm OVC
15:44 42.0 °F /  5.6 °C 10.4 °F /  -12 °C 30.63in /  1037.1hPa WNW 10.4mph /  16.7km/h   27% 0.01in /  0.25mm OVC
15:49 42.2 °F /  5.7 °C 9.7 °F /  -12.4 °C 30.63in /  1037.1hPa WNW 10.4mph /  16.7km/h   26% 0.01in /  0.25mm OVC
15:54 42.1 °F /  5.6 °C 10.5 °F /  -11.9 °C 30.62in /  1036.8hPa NE 10.4mph /  16.7km/h 10.4mph /  16.7km/h 27% 0.01in /  0.25mm OVC
15:59 42.0 °F /  5.6 °C 11.2 °F /  -11.6 °C 30.63in /  1037.1hPa WSW 10.4mph /  16.7km/h 10.4mph /  16.7km/h 28% 0.01in /  0.25mm OVC
16:04 41.8 °F /  5.4 °C 11.0 °F /  -11.7 °C 30.63in /  1037.1hPa WNW 10.4mph /  16.7km/h 10.4mph /  16.7km/h 28% 0.01in /  0.25mm CLR
16:09 41.7 °F /  5.4 °C 10.9 °F /  -11.7 °C 30.63in /  1037.1hPa WNW 10.4mph /  16.7km/h   28% 0.01in /  0.25mm CLR
16:14 41.7 °F /  5.4 °C 8.4 °F /  -13.1 °C 30.63in /  1037.1hPa NNW 10.4mph /  16.7km/h 10.4mph /  16.7km/h 25% 0.01in /  0.25mm CLR
16:19 41.8 °F /  5.4 °C 8.5 °F /  -13.1 °C 30.63in /  1037.1hPa NW 10.4mph /  16.7km/h 10.4mph /  16.7km/h 25% 0.00in /  0mm CLR
16:24 41.8 °F /  5.4 °C 10.2 °F /  -12.1 °C 30.63in /  1037.1hPa NW 10.4mph /  16.7km/h   27% 0.00in /  0mm CLR
16:30 41.7 °F /  5.4 °C 12.5 °F /  -10.8 °C 30.63in /  1037.1hPa West 10.4mph /  16.7km/h 10.4mph /  16.7km/h 30% 0.00in /  0mm CLR
16:34 41.6 °F /  5.3 °C 10.9 °F /  -11.7 °C 30.63in /  1037.1hPa NW 10.4mph /  16.7km/h   28% 0.00in /  0mm CLR
16:40 41.5 °F /  5.3 °C 14.5 °F /  -9.7 °C 30.63in /  1037.1hPa NW 10.4mph /  16.7km/h   33% 0.00in /  0mm CLR
16:45 41.3 °F /  5.2 °C 9.8 °F /  -12.3 °C 30.63in /  1037.1hPa NW 10.4mph /  16.7km/h   27% 0.00in /  0mm CLR
16:50 41.3 °F /  5.2 °C 8.9 °F /  -12.8 °C 30.63in /  1037.1hPa NNW 10.4mph /  16.7km/h 10.4mph /  16.7km/h 26% 0.00in /  0mm CLR
16:55 41.2 °F /  5.1 °C 8.8 °F /  -12.9 °C 30.63in /  1037.1hPa North 10.4mph /  16.7km/h   26% 0.00in /  0mm CLR
17:00 41.0 °F /  5 °C 9.5 °F /  -12.5 °C 30.63in /  1037.1hPa NW 10.4mph /  16.7km/h 10.4mph /  16.7km/h 27% 0.00in /  0mm CLR
17:05 41.0 °F /  5 °C 11.1 °F /  -11.6 °C 30.63in /  1037.1hPa WNW 10.4mph /  16.7km/h 10.4mph /  16.7km/h 29% 0.00in /  0mm CLR
17:10 40.8 °F /  4.9 °C 11.7 °F /  -11.3 °C 30.62in /  1036.8hPa WNW 10.4mph /  16.7km/h   30% 0.00in /  0mm CLR
17:15 40.6 °F /  4.8 °C 11.5 °F /  -11.4 °C 30.62in /  1036.8hPa WNW 10.4mph /  16.7km/h   30% 0.00in /  0mm CLR
17:20 40.4 °F /  4.7 °C 9.0 °F /  -12.8 °C 30.61in /  1036.5hPa NW 10.4mph /  16.7km/h 10.4mph /  16.7km/h 27% 0.00in /  0mm CLR
17:25 40.4 °F /  4.7 °C 9.8 °F /  -12.3 °C 30.62in /  1036.8hPa North 10.4mph /  16.7km/h   28% 0.00in /  0mm CLR
17:30 40.1 °F /  4.5 °C 10.3 °F /  -12.1 °C 30.62in /  1036.8hPa NNW 10.4mph /  16.7km/h   29% 0.00in /  0mm CLR
17:35 39.9 °F /  4.4 °C 10.9 °F /  -11.7 °C 30.62in /  1036.8hPa NNW 10.4mph /  16.7km/h   30% 0.00in /  0mm CLR
17:40 39.6 °F /  4.2 °C 10.7 °F /  -11.8 °C 30.61in /  1036.5hPa NNW 10.4mph /  16.7km/h   30% 0.00in /  0mm CLR
17:45 39.2 °F /  4 °C 10.3 °F /  -12.1 °C 30.61in /  1036.5hPa NNW 10.4mph /  16.7km/h   30% 0.00in /  0mm CLR
17:51 38.9 °F /  3.8 °C 13.5 °F /  -10.3 °C 30.62in /  1036.8hPa NNW 10.4mph /  16.7km/h   35% 0.00in /  0mm CLR
17:56 38.5 °F /  3.6 °C 14.4 °F /  -9.8 °C 30.62in /  1036.8hPa NNW 10.4mph /  16.7km/h   37% 0.00in /  0mm CLR
18:01 38.1 °F /  3.4 °C 13.5 °F /  -10.3 °C 30.62in /  1036.8hPa NNW 10.4mph /  16.7km/h   36% 0.00in /  0mm
18:06 37.7 °F /  3.2 °C 15.5 °F /  -9.2 °C 30.62in /  1036.8hPa NNW 10.4mph /  16.7km/h   40% 0.00in /  0mm
18:11 37.2 °F /  2.9 °C 12.0 °F /  -11.1 °C 30.62in /  1036.8hPa NNW 10.4mph /  16.7km/h   35% 0.00in /  0mm
18:16 36.7 °F /  2.6 °C 11.6 °F /  -11.3 °C 30.62in /  1036.8hPa NNW 10.4mph /  16.7km/h   35% 0.00in /  0mm
18:21 36.4 °F /  2.4 °C 14.9 °F /  -9.5 °C 30.62in /  1036.8hPa NNW 10.4mph /  16.7km/h   41% 0.00in /  0mm
18:26 36.0 °F /  2.2 °C 14.5 °F /  -9.7 °C 30.62in /  1036.8hPa NNW 10.4mph /  16.7km/h   41% 0.00in /  0mm
18:31 35.8 °F /  2.1 °C 15.5 °F /  -9.2 °C 30.62in /  1036.8hPa NNW 10.4mph /  16.7km/h   43% 0.01in /  0.25mm
18:36 35.7 °F /  2.1 °C 13.7 °F /  -10.2 °C 30.62in /  1036.8hPa NNW 10.4mph /  16.7km/h   40% 0.01in /  0.25mm
18:41 35.6 °F /  2 °C 14.7 °F /  -9.6 °C 30.62in /  1036.8hPa NNW 10.4mph /  16.7km/h   42% 0.01in /  0.25mm
18:46 35.3 °F /  1.8 °C 14.5 °F /  -9.7 °C 30.62in /  1036.8hPa NNW 10.4mph /  16.7km/h   42% 0.01in /  0.25mm
18:51 35.0 °F /  1.7 °C 14.7 °F /  -9.6 °C 30.62in /  1036.8hPa NNW 10.4mph /  16.7km/h   43% 0.01in /  0.25mm
18:56 34.6 °F /  1.4 °C 14.9 °F /  -9.5 °C 30.62in /  1036.8hPa NNW 10.4mph /  16.7km/h   44% 0.01in /  0.25mm
19:01 34.3 °F /  1.3 °C 14.6 °F /  -9.7 °C 30.63in /  1037.1hPa NNW 10.4mph /  16.7km/h   44% 0.01in /  0.25mm
19:06 34.5 °F /  1.4 °C 15.3 °F /  -9.3 °C 30.63in /  1037.1hPa NNW 10.4mph /  16.7km/h   45% 0.01in /  0.25mm
19:12 34.3 °F /  1.3 °C 15.1 °F /  -9.4 °C 30.63in /  1037.1hPa NNW 10.4mph /  16.7km/h   45% 0.01in /  0.25mm
19:17 33.9 °F /  1.1 °C 14.8 °F /  -9.6 °C 30.63in /  1037.1hPa NNW 10.4mph /  16.7km/h   45% 0.01in /  0.25mm
19:22 33.6 °F /  0.9 °C 15.5 °F /  -9.2 °C 30.63in /  1037.1hPa NNW 10.4mph /  16.7km/h   47% 0.01in /  0.25mm
19:27 33.2 °F /  0.7 °C 13.6 °F /  -10.2 °C 30.63in /  1037.1hPa NNW 10.4mph /  16.7km/h   44% 0.01in /  0.25mm
19:32 32.9 °F /  0.5 °C 14.8 °F /  -9.6 °C 30.63in /  1037.1hPa NNW 10.4mph /  16.7km/h   47% 0.00in /  0mm
19:37 32.6 °F /  0.3 °C 15.1 °F /  -9.4 °C 30.62in /  1036.8hPa NNW 10.4mph /  16.7km/h   48% 0.00in /  0mm
19:42 32.4 °F /  0.2 °C 14.9 °F /  -9.5 °C 30.63in /  1037.1hPa NNW 10.4mph /  16.7km/h   48% 0.00in /  0mm
19:47 32.7 °F /  0.4 °C 16.1 °F /  -8.8 °C 30.63in /  1037.1hPa North 10.4mph /  16.7km/h 10.4mph /  16.7km/h 50% 0.00in /  0mm
19:53 33.2 °F /  0.7 °C 15.1 °F /  -9.4 °C 30.63in /  1037.1hPa North 10.4mph /  16.7km/h   47% 0.00in /  0mm
19:58 33.5 °F /  0.8 °C 17.3 °F /  -8.2 °C 30.63in /  1037.1hPa North 10.4mph /  16.7km/h   51% 0.00in /  0mm
20:03 33.3 °F /  0.7 °C 16.2 °F /  -8.8 °C 30.64in /  1037.5hPa North 10.4mph /  16.7km/h   49% 0.00in /  0mm
20:08 33.1 °F /  0.6 °C 16.0 °F /  -8.9 °C 30.63in /  1037.1hPa North 10.4mph /  16.7km/h   49% 0.00in /  0mm
20:13 32.9 °F /  0.5 °C 15.8 °F /  -9 °C 30.63in /  1037.1hPa North 10.4mph /  16.7km/h   49% 0.00in /  0mm
20:18 33.2 °F /  0.7 °C 16.1 °F /  -8.8 °C 30.63in /  1037.1hPa North 10.4mph /  16.7km/h   49% 0.00in /  0mm
20:23 33.2 °F /  0.7 °C 16.5 °F /  -8.6 °C 30.64in /  1037.5hPa North 10.4mph /  16.7km/h   50% 0.00in /  0mm
20:28 33.2 °F /  0.7 °C 15.1 °F /  -9.4 °C 30.64in /  1037.5hPa North 10.4mph /  16.7km/h   47% 0.00in /  0mm
20:33 33.3 °F /  0.7 °C 18.4 °F /  -7.6 °C 30.63in /  1037.1hPa North 10.4mph /  16.7km/h   54% 0.00in /  0mm
20:38 32.8 °F /  0.4 °C 18.8 °F /  -7.3 °C 30.63in /  1037.1hPa NNW 10.4mph /  16.7km/h   56% 0.00in /  0mm
20:43 32.4 °F /  0.2 °C 18.4 °F /  -7.6 °C 30.62in /  1036.8hPa NNW 10.4mph /  16.7km/h   56% 0.00in /  0mm
20:48 32.1 °F /  0.1 °C 16.9 °F /  -8.4 °C 30.62in /  1036.8hPa NNW 10.4mph /  16.7km/h   53% 0.00in /  0mm
20:53 32.1 °F /  0.1 °C 14.6 °F /  -9.7 °C 30.62in /  1036.8hPa NNW 10.4mph /  16.7km/h   48% 0.00in /  0mm
20:58 32.2 °F /  0.1 °C 13.7 °F /  -10.2 °C 30.63in /  1037.1hPa NNW 10.4mph /  16.7km/h   46% 0.00in /  0mm
20:59 32.2 °F /  0.1 °C 13.7 °F /  -10.2 °C 30.63in /  1037.1hPa NNW 10.4mph /  16.7km/h   46% 0.00in /  0mm
21:04 32.3 °F /  0.2 °C 13.3 °F /  -10.4 °C 30.63in /  1037.1hPa NNW 10.4mph /  16.7km/h   45% 0.00in /  0mm
21:09 32.2 °F /  0.1 °C 13.2 °F /  -10.4 °C 30.62in /  1036.8hPa NNW 10.4mph /  16.7km/h   45% 0.00in /  0mm
21:14 32.2 °F /  0.1 °C 13.7 °F /  -10.2 °C 30.62in /  1036.8hPa NNW 10.4mph /  16.7km/h   46% 0.00in /  0mm
21:19 32.2 °F /  0.1 °C 14.2 °F /  -9.9 °C 30.62in /  1036.8hPa NNW 10.4mph /  16.7km/h   47% 0.00in /  0mm
21:24 32.3 °F /  0.2 °C 15.3 °F /  -9.3 °C 30.63in /  1037.1hPa NNW 10.4mph /  16.7km/h   49% 0.00in /  0mm
21:29 32.4 °F /  0.2 °C 14.9 °F /  -9.5 °C 30.63in /  1037.1hPa NNW 10.4mph /  16.7km/h   48% 0.00in /  0mm
21:35 32.3 °F /  0.2 °C 15.7 °F /  -9.1 °C 30.63in /  1037.1hPa NNW 10.4mph /  16.7km/h   50% 0.00in /  0mm
21:40 32.0 °F /  0 °C 16.3 °F /  -8.7 °C 30.63in /  1037.1hPa NNW 10.4mph /  16.7km/h   52% 0.00in /  0mm
21:45 31.9 °F /  -0.1 °C 17.1 °F /  -8.3 °C 30.63in /  1037.1hPa NNW 10.4mph /  16.7km/h   54% 0.00in /  0mm
21:50 31.7 °F /  -0.2 °C 17.4 °F /  -8.1 °C 30.63in /  1037.1hPa NNW 10.4mph /  16.7km/h   55% 0.00in /  0mm
21:55 31.3 °F /  -0.4 °C 15.7 °F /  -9.1 °C 30.62in /  1036.8hPa NNW 10.4mph /  16.7km/h   52% 0.00in /  0mm
22:00 31.2 °F /  -0.4 °C 16.9 °F /  -8.4 °C 30.62in /  1036.8hPa NNW 10.4mph /  16.7km/h   55% 0.00in /  0mm
22:05 31.1 °F /  -0.5 °C 14.6 °F /  -9.7 °C 30.63in /  1037.1hPa NNW 10.4mph /  16.7km/h   50% 0.00in /  0mm
22:10 31.2 °F /  -0.4 °C 14.7 °F /  -9.6 °C 30.63in /  1037.1hPa NNW 10.4mph /  16.7km/h   50% 0.00in /  0mm
22:15 31.3 °F /  -0.4 °C 14.3 °F /  -9.8 °C 30.63in /  1037.1hPa NNW 10.4mph /  16.7km/h   49% 0.00in /  0mm
22:20 31.4 °F /  -0.3 °C 13.9 °F /  -10.1 °C 30.62in /  1036.8hPa NNW 10.4mph /  16.7km/h   48% 0.00in /  0mm
22:25 31.5 °F /  -0.3 °C 13.6 °F /  -10.2 °C 30.62in /  1036.8hPa NNW 10.4mph /  16.7km/h   47% 0.00in /  0mm
22:30 31.5 °F /  -0.3 °C 13.6 °F /  -10.2 °C 30.61in /  1036.5hPa NNW 10.4mph /  16.7km/h   47% 0.00in /  0mm
22:35 31.4 °F /  -0.3 °C 13.5 °F /  -10.3 °C 30.62in /  1036.8hPa NNW 10.4mph /  16.7km/h   47% 0.00in /  0mm
22:40 31.3 °F /  -0.4 °C 13.4 °F /  -10.3 °C 30.62in /  1036.8hPa NNW 10.4mph /  16.7km/h   47% 0.00in /  0mm
22:45 31.2 °F /  -0.4 °C 13.8 °F /  -10.1 °C 30.62in /  1036.8hPa NNW 10.4mph /  16.7km/h   48% 0.00in /  0mm
22:50 31.2 °F /  -0.4 °C 12.8 °F /  -10.7 °C 30.62in /  1036.8hPa NNW 10.4mph /  16.7km/h   46% 0.00in /  0mm
22:56 31.3 °F /  -0.4 °C 13.9 °F /  -10.1 °C 30.62in /  1036.8hPa NNW 10.4mph /  16.7km/h   48% 0.00in /  0mm
23:01 31.1 °F /  -0.5 °C 13.7 °F /  -10.2 °C 30.62in /  1036.8hPa NNW 10.4mph /  16.7km/h   48% 0.00in /  0mm
23:06 30.9 °F /  -0.6 °C 13.5 °F /  -10.3 °C 30.62in /  1036.8hPa NNW 10.4mph /  16.7km/h   48% 0.00in /  0mm
23:11 31.0 °F /  -0.6 °C 14.5 °F /  -9.7 °C 30.62in /  1036.8hPa NNW 10.4mph /  16.7km/h   50% 0.00in /  0mm
23:16 31.3 °F /  -0.4 °C 13.9 °F /  -10.1 °C 30.62in /  1036.8hPa NNW 10.4mph /  16.7km/h   48% 0.00in /  0mm
23:21 31.4 °F /  -0.3 °C 15.3 °F /  -9.3 °C 30.62in /  1036.8hPa NNW 10.4mph /  16.7km/h   51% 0.00in /  0mm
23:26 31.3 °F /  -0.4 °C 13.4 °F /  -10.3 °C 30.62in /  1036.8hPa NNW 10.4mph /  16.7km/h   47% 0.00in /  0mm
23:31 31.7 °F /  -0.2 °C 13.3 °F /  -10.4 °C 30.62in /  1036.8hPa NNW 10.4mph /  16.7km/h   46% 0.00in /  0mm
23:36 31.8 °F /  -0.1 °C 13.8 °F /  -10.1 °C 30.61in /  1036.5hPa NNW 10.4mph /  16.7km/h   47% 0.00in /  0mm
23:41 32.1 °F /  0.1 °C 13.1 °F /  -10.5 °C 30.61in /  1036.5hPa NNW 10.4mph /  16.7km/h   45% 0.00in /  0mm
23:46 32.2 °F /  0.1 °C 12.7 °F /  -10.7 °C 30.61in /  1036.5hPa NNW 10.4mph /  16.7km/h 10.4mph /  16.7km/h 44% 0.00in /  0mm
23:51 32.2 °F /  0.1 °C 12.7 °F /  -10.7 °C 30.61in /  1036.5hPa NNW 10.4mph /  16.7km/h   44% 0.00in /  0mm
23:56 32.2 °F /  0.1 °C 12.7 °F /  -10.7 °C 30.60in /  1036.1hPa NW 10.4mph /  16.7km/h   44% 0.00in /  0mm
Piedmont Bend
Compliments of Weather Underground - 4 mb